createdAt,value
2022-10-07T00:12:06.951Z,83.13
2022-10-07T00:40:27.096Z,84.28
2022-10-07T01:08:42.313Z,84.78
2022-10-07T01:37:03.707Z,84.76
2022-10-07T02:05:25.083Z,85.07
2022-10-07T02:33:43.906Z,83.43
2022-10-07T03:02:05.615Z,84.18
2022-10-07T03:30:27.561Z,85.51
2022-10-07T03:58:43.734Z,86.15
2022-10-07T04:27:52.469Z,84.63
2022-10-07T04:56:08.707Z,85.33
2022-10-07T05:25:14.508Z,83.77
2022-10-07T05:54:11.159Z,86.66
2022-10-07T06:22:58.741Z,81.81
2022-10-07T06:51:58.159Z,72.74
2022-10-07T07:21:09.452Z,63.72
2022-10-07T07:50:09.671Z,60.94
2022-10-07T08:19:04.729Z,60.89
2022-10-07T08:48:05.979Z,59.9
2022-10-07T09:16:09.686Z,60.34
2022-10-07T09:45:36.311Z,55.77
2022-10-07T10:14:57.613Z,53.15
2022-10-07T10:44:00.266Z,58.16
2022-10-07T11:12:39.543Z,51.76
2022-10-07T11:41:22.035Z,53.89
2022-10-07T12:10:21.153Z,57.36
2022-10-07T12:39:20.495Z,60.24
2022-10-07T13:08:11.232Z,58.42
2022-10-07T13:36:59.307Z,59.26
2022-10-07T14:06:06.552Z,57.93
2022-10-07T14:34:52.892Z,57.26
2022-10-07T15:03:52.698Z,59.18
2022-10-07T15:32:41.817Z,59.71
2022-10-07T16:01:29.166Z,63.58
2022-10-07T16:30:16.067Z,69.14
2022-10-07T16:59:01.686Z,71.44
2022-10-07T17:27:12.803Z,77.72
2022-10-07T17:55:30.931Z,85.86
2022-10-07T18:24:31.317Z,84.07
2022-10-07T18:53:25.182Z,88.09
2022-10-07T19:22:18.438Z,88.98
2022-10-07T19:50:34.579Z,91.37
2022-10-07T20:18:56.847Z,92.75
2022-10-07T20:47:18.299Z,93.91
2022-10-07T21:15:26.389Z,96.25
2022-10-07T21:43:44.886Z,95.35
2022-10-07T22:12:03.913Z,96.18
2022-10-07T22:41:02.919Z,97.48
2022-10-07T23:09:56.175Z,96.72
2022-10-07T23:38:45.432Z,100
